createdAt,value
2018-06-29T00:02:01.272Z,98303.72
2018-06-29T00:04:32.487Z,98303.55
2018-06-29T00:07:03.545Z,98300.73
2018-06-29T00:09:36.104Z,98300.91
2018-06-29T00:12:07.518Z,98302.57
2018-06-29T00:14:39.625Z,98298.26
2018-06-29T00:17:10.687Z,98295.61
2018-06-29T00:19:41.695Z,98299.88
2018-06-29T00:22:13.003Z,98300.87
2018-06-29T00:24:45.164Z,98303.83
2018-06-29T00:27:16.428Z,98305.31
2018-06-29T00:29:47.826Z,98307.09
2018-06-29T00:32:20.118Z,98301.80
2018-06-29T00:34:52.027Z,98297.17
2018-06-29T00:37:23.155Z,98298.80
2018-06-29T00:39:54.376Z,98299.47
2018-06-29T00:42:25.516Z,98299.45
2018-06-29T00:44:56.881Z,98302.86
2018-06-29T00:47:28.598Z,98305.96
2018-06-29T00:49:59.766Z,98310.20
2018-06-29T00:52:30.840Z,98313.16
2018-06-29T00:55:02.043Z,98305.36
2018-06-29T00:57:33.147Z,98304.19
2018-06-29T01:00:07.716Z,98301.88
2018-06-29T01:02:38.437Z,98300.23
2018-06-29T01:05:10.003Z,98299.41
2018-06-29T01:07:41.344Z,98297.58
2018-06-29T01:10:12.431Z,98292.77
2018-06-29T01:12:44.238Z,98290.59
2018-06-29T01:15:15.478Z,98291.22
2018-06-29T01:17:47.304Z,98290.86
2018-06-29T01:20:18.341Z,98289.98
2018-06-29T01:22:48.895Z,98290.09
2018-06-29T01:25:19.366Z,98296.66
2018-06-29T01:27:51.353Z,98297.14
2018-06-29T01:30:22.374Z,98293.13
2018-06-29T01:32:53.480Z,98290.31
2018-06-29T01:35:24.714Z,98288.64
2018-06-29T01:37:55.047Z,98288.80
2018-06-29T01:40:26.239Z,98289.77
2018-06-29T01:42:57.542Z,98281.86
2018-06-29T01:45:28.807Z,98275.44
2018-06-29T01:48:00.086Z,98273.80
2018-06-29T01:50:31.204Z,98266.56
2018-06-29T01:53:02.537Z,98266.43
2018-06-29T01:55:33.950Z,98265.33
2018-06-29T01:58:05.327Z,98264.89
2018-06-29T02:00:36.379Z,98264.91
2018-06-29T02:03:07.732Z,98263.06
2018-06-29T02:05:39.473Z,98264.36
2018-06-29T02:08:10.189Z,98264.66
2018-06-29T02:10:41.081Z,98261.16
2018-06-29T02:13:11.646Z,98270.17
2018-06-29T02:15:42.546Z,98263.30
2018-06-29T02:18:13.852Z,98255.34
2018-06-29T02:20:44.504Z,98256.92
2018-06-29T02:23:15.515Z,98255.06
2018-06-29T02:25:46.716Z,98256.80
2018-06-29T02:28:17.627Z,98256.41
2018-06-29T02:30:48.940Z,98257.77
2018-06-29T02:33:20.084Z,98256.83
2018-06-29T02:35:52.409Z,98255.44
2018-06-29T02:38:23.349Z,98254.60
2018-06-29T02:40:54.761Z,98248.22
2018-06-29T02:43:25.836Z,98250.84
2018-06-29T02:45:56.720Z,98252.33
2018-06-29T02:48:27.643Z,98252.36
2018-06-29T02:50:58.724Z,98248.34
2018-06-29T02:53:29.731Z,98247.58
2018-06-29T02:56:00.219Z,98248.78
2018-06-29T02:58:31.308Z,98244.75
2018-06-29T03:01:02.396Z,98247.14
2018-06-29T03:03:34.208Z,98250.68
2018-06-29T03:06:05.916Z,98247.52
2018-06-29T03:08:36.901Z,98249.12
2018-06-29T03:11:08.340Z,98252.95
2018-06-29T03:13:39.647Z,98258.72
2018-06-29T03:16:09.923Z,98261.43
2018-06-29T03:18:41.101Z,98265.42
2018-06-29T03:21:12.838Z,98275.30
2018-06-29T03:23:43.983Z,98265.55
2018-06-29T03:26:15.191Z,98263.34
2018-06-29T03:28:47.029Z,98268.88
2018-06-29T03:31:19.097Z,98272.78
2018-06-29T03:33:51.228Z,98269.06
2018-06-29T03:36:23.186Z,98271.47
2018-06-29T03:38:54.348Z,98276.53
2018-06-29T03:41:24.915Z,98275.41
2018-06-29T03:43:56.255Z,98268.38
2018-06-29T03:46:27.331Z,98272.53
2018-06-29T03:48:59.104Z,98269.06
2018-06-29T03:51:31.004Z,98269.06
2018-06-29T03:54:02.206Z,98276.27
2018-06-29T03:56:34.638Z,98282.73
2018-06-29T03:59:05.054Z,98282.73
2018-06-29T04:01:36.246Z,98282.00
2018-06-29T04:04:08.522Z,98280.17
2018-06-29T04:06:39.057Z,98283.84
2018-06-29T04:09:12.896Z,98281.62
2018-06-29T04:11:44.547Z,98282.36
2018-06-29T04:14:15.877Z,98292.14
2018-06-29T04:16:48.150Z,98298.29
2018-06-29T04:19:19.325Z,98293.41
2018-06-29T04:21:50.348Z,98293.86
2018-06-29T04:24:21.899Z,98289.09
2018-06-29T04:26:53.268Z,98292.92
2018-06-29T04:29:24.769Z,98290.34
2018-06-29T04:31:56.338Z,98294.58
2018-06-29T04:34:27.878Z,98294.52
2018-06-29T04:37:00.358Z,98297.25
2018-06-29T04:39:31.738Z,98300.87
2018-06-29T04:42:02.923Z,98298.92
2018-06-29T04:44:34.074Z,98300.65
2018-06-29T04:47:05.328Z,98295.83
2018-06-29T04:49:37.528Z,98302.69
2018-06-29T04:52:09.306Z,98303.91
2018-06-29T04:54:40.505Z,98304.67
2018-06-29T04:57:11.731Z,98303.39
2018-06-29T04:59:42.926Z,98307.13
2018-06-29T05:02:14.143Z,98305.20
2018-06-29T05:04:45.348Z,98308.53
2018-06-29T05:07:16.517Z,98311.45
2018-06-29T05:09:48.245Z,98305.50
2018-06-29T05:12:19.682Z,98302.44
2018-06-29T05:14:52.029Z,98308.63
2018-06-29T05:17:23.437Z,98308.16
2018-06-29T05:19:54.667Z,98315.00
2018-06-29T05:22:25.776Z,98323.99
2018-06-29T05:24:57.151Z,98323.73
2018-06-29T05:27:28.239Z,98325.60
2018-06-29T05:29:58.933Z,98322.88
2018-06-29T05:32:31.243Z,98329.23
2018-06-29T05:35:03.323Z,98339.34
2018-06-29T05:37:35.502Z,98332.91
2018-06-29T05:40:07.706Z,98330.63
2018-06-29T05:42:39.114Z,98337.91
2018-06-29T05:45:11.395Z,98333.14
2018-06-29T05:47:42.053Z,98336.27
2018-06-29T05:50:15.642Z,98336.66
2018-06-29T05:52:47.396Z,98337.80
2018-06-29T05:55:18.757Z,98339.78
2018-06-29T05:57:50.593Z,98342.04
2018-06-29T06:00:23.508Z,98334.75
2018-06-29T06:02:55.295Z,98340.30
2018-06-29T06:05:28.516Z,98339.94
2018-06-29T06:08:00.041Z,98337.76
2018-06-29T06:10:31.808Z,98343.80
2018-06-29T06:13:03.263Z,98345.20
2018-06-29T06:15:35.809Z,98340.52
2018-06-29T06:18:07.178Z,98333.09
2018-06-29T06:20:38.802Z,98333.45
2018-06-29T06:23:21.266Z,98335.38
2018-06-29T06:25:53.456Z,98344.63
2018-06-29T06:28:25.281Z,98341.08
2018-06-29T06:30:57.680Z,98339.91
2018-06-29T06:33:29.736Z,98338.84
2018-06-29T06:36:02.210Z,98340.05
2018-06-29T06:38:34.880Z,98340.34
2018-06-29T06:41:06.952Z,98346.33
2018-06-29T06:43:38.470Z,98341.68
2018-06-29T06:46:11.648Z,98344.25
2018-06-29T06:48:43.243Z,98345.26
2018-06-29T06:51:15.146Z,98344.19
2018-06-29T06:53:47.676Z,98344.41
2018-06-29T06:56:21.818Z,98335.58
2018-06-29T06:58:54.771Z,98335.98
2018-06-29T07:01:28.160Z,98332.00
2018-06-29T07:04:01.238Z,98331.00
2018-06-29T07:06:33.390Z,98330.76
2018-06-29T07:09:05.030Z,98325.77
2018-06-29T07:11:37.302Z,98332.84
2018-06-29T07:14:11.077Z,98329.72
2018-06-29T07:16:43.731Z,98332.70
2018-06-29T07:19:15.759Z,98334.55
2018-06-29T07:21:47.168Z,98336.77
2018-06-29T07:24:19.440Z,98332.67
2018-06-29T07:26:50.834Z,98338.73
2018-06-29T07:29:22.545Z,98337.66
2018-06-29T07:31:54.130Z,98336.88
2018-06-29T07:34:25.410Z,98334.32
2018-06-29T07:36:56.839Z,98336.12
2018-06-29T07:39:28.738Z,98338.86
2018-06-29T07:42:00.895Z,98336.97
2018-06-29T07:44:32.342Z,98339.17
2018-06-29T07:47:04.170Z,98331.56
2018-06-29T07:49:35.902Z,98328.86
2018-06-29T07:52:07.324Z,98328.36
2018-06-29T07:54:38.855Z,98322.52
2018-06-29T07:57:10.298Z,98325.38
2018-06-29T07:59:42.938Z,98325.72
2018-06-29T08:02:14.838Z,98322.55
2018-06-29T08:04:46.208Z,98314.66
2018-06-29T08:07:18.324Z,98311.50
2018-06-29T08:09:49.884Z,98313.74
2018-06-29T08:12:21.525Z,98318.08
2018-06-29T08:14:52.778Z,98319.91
2018-06-29T08:17:24.051Z,98319.78
2018-06-29T08:19:55.615Z,98321.20
2018-06-29T08:22:27.613Z,98317.27
2018-06-29T08:25:09.880Z,98314.14
2018-06-29T08:27:41.483Z,98318.80
2018-06-29T08:30:15.665Z,98317.41
2018-06-29T08:32:47.194Z,98315.34
2018-06-29T08:35:18.523Z,98314.16
2018-06-29T08:37:51.536Z,98310.08
2018-06-29T08:40:22.677Z,98311.58
2018-06-29T08:42:54.029Z,98315.53
2018-06-29T08:45:25.707Z,98320.62
2018-06-29T08:47:57.234Z,98308.48
2018-06-29T08:50:29.096Z,98312.91
2018-06-29T08:53:02.998Z,98319.38
2018-06-29T08:55:35.127Z,98325.91
2018-06-29T08:58:06.991Z,98327.33
2018-06-29T09:00:38.637Z,98327.23
2018-06-29T09:03:10.269Z,98326.19
2018-06-29T09:05:41.347Z,98326.52
2018-06-29T09:08:15.048Z,98328.55
2018-06-29T09:10:47.627Z,98328.89
2018-06-29T09:13:20.140Z,98323.41
2018-06-29T09:15:52.616Z,98323.55
2018-06-29T09:18:25.730Z,98321.83
2018-06-29T09:20:58.256Z,98323.13
2018-06-29T09:23:32.942Z,98328.48
2018-06-29T09:26:04.314Z,98323.55
2018-06-29T09:28:35.944Z,98331.83
2018-06-29T09:31:08.895Z,98326.51
2018-06-29T09:33:45.945Z,98323.20
2018-06-29T09:36:18.768Z,98334.38
2018-06-29T09:38:49.666Z,98329.97
2018-06-29T09:41:21.855Z,98336.00
2018-06-29T09:43:54.434Z,98338.14
2018-06-29T09:46:27.217Z,98333.08
2018-06-29T09:48:59.244Z,98336.98
2018-06-29T09:51:31.059Z,98334.55
2018-06-29T09:54:03.393Z,98331.50
2018-06-29T09:56:34.646Z,98335.62
2018-06-29T09:59:06.644Z,98334.12
2018-06-29T10:01:38.160Z,98325.02
2018-06-29T10:04:09.346Z,98330.77
2018-06-29T10:06:41.924Z,98329.66
2018-06-29T10:09:13.303Z,98335.99
2018-06-29T10:11:45.984Z,98335.04
2018-06-29T10:14:17.449Z,98332.23
2018-06-29T10:16:48.541Z,98328.27
2018-06-29T10:19:19.771Z,98323.24
2018-06-29T10:21:52.141Z,98326.95
2018-06-29T10:24:24.571Z,98328.34
2018-06-29T10:26:56.959Z,98316.70
2018-06-29T10:29:28.375Z,98324.11
2018-06-29T10:32:01.056Z,98323.36
2018-06-29T10:34:32.558Z,98319.13
2018-06-29T10:37:05.618Z,98316.63
2018-06-29T10:39:36.933Z,98324.57
2018-06-29T10:42:08.495Z,98325.52
2018-06-29T10:44:41.406Z,98325.56
2018-06-29T10:47:14.342Z,98323.06
2018-06-29T10:49:47.258Z,98326.19
2018-06-29T10:52:19.163Z,98317.47
2018-06-29T10:54:51.207Z,98321.59
2018-06-29T10:57:22.827Z,98323.98
2018-06-29T10:59:55.037Z,98323.93
2018-06-29T11:02:26.319Z,98321.05
2018-06-29T11:04:57.792Z,98322.16
2018-06-29T11:07:29.012Z,98329.32
2018-06-29T11:10:01.882Z,98318.92
2018-06-29T11:12:33.297Z,98318.17
2018-06-29T11:15:04.461Z,98313.00
2018-06-29T11:17:36.743Z,98313.42
2018-06-29T11:20:08.305Z,98311.38
2018-06-29T11:22:39.528Z,98304.40
2018-06-29T11:25:11.038Z,98307.55
2018-06-29T11:27:42.695Z,98312.03
2018-06-29T11:30:14.298Z,98302.89
2018-06-29T11:32:46.258Z,98295.78
2018-06-29T11:35:18.285Z,98306.22
2018-06-29T11:37:49.543Z,98301.48
2018-06-29T11:40:20.760Z,98297.77
2018-06-29T11:42:51.676Z,98289.75
2018-06-29T11:45:23.315Z,98287.95
2018-06-29T11:47:54.874Z,98283.83
2018-06-29T11:50:28.943Z,98277.59
2018-06-29T11:53:01.277Z,98278.95
2018-06-29T11:55:33.089Z,98278.59
2018-06-29T11:58:08.337Z,98279.53
2018-06-29T12:00:39.775Z,98285.45
2018-06-29T12:03:15.139Z,98276.53
2018-06-29T12:05:50.792Z,98273.81
2018-06-29T12:08:24.464Z,98271.95
2018-06-29T12:10:57.514Z,98281.51
2018-06-29T12:13:28.814Z,98268.30
2018-06-29T12:16:00.786Z,98265.88
2018-06-29T12:18:32.436Z,98263.17
2018-06-29T12:21:04.450Z,98258.83
2018-06-29T12:23:36.274Z,98266.00
2018-06-29T12:26:08.805Z,98261.66
2018-06-29T12:28:40.411Z,98260.36
2018-06-29T12:31:11.996Z,98254.43
2018-06-29T12:33:43.296Z,98255.91
2018-06-29T12:36:16.010Z,98256.13
2018-06-29T12:38:47.873Z,98253.43
2018-06-29T12:41:19.779Z,98256.86
2018-06-29T12:43:51.636Z,98256.73
2018-06-29T12:46:24.163Z,98254.87
2018-06-29T12:48:55.797Z,98250.99
2018-06-29T12:51:27.801Z,98246.31
2018-06-29T12:54:01.484Z,98243.97
2018-06-29T12:56:32.853Z,98239.36
2018-06-29T12:59:03.696Z,98240.50
2018-06-29T13:01:34.856Z,98240.57
2018-06-29T13:04:05.483Z,98240.63
2018-06-29T13:06:37.666Z,98232.14
2018-06-29T13:09:11.702Z,98234.52
2018-06-29T13:11:43.520Z,98231.17
2018-06-29T13:14:14.998Z,98233.39
2018-06-29T13:16:46.216Z,98234.56
2018-06-29T13:19:18.698Z,98228.86
2018-06-29T13:21:51.123Z,98226.11
2018-06-29T13:24:23.953Z,98227.48
2018-06-29T13:26:55.263Z,98219.59
2018-06-29T13:29:27.684Z,98216.41
2018-06-29T13:31:59.582Z,98216.59
2018-06-29T13:34:31.400Z,98222.55
2018-06-29T13:37:04.125Z,98217.87
2018-06-29T13:39:36.646Z,98216.52
2018-06-29T13:42:08.841Z,98215.23
2018-06-29T13:44:40.615Z,98214.44
2018-06-29T13:47:13.050Z,98211.23
2018-06-29T13:49:45.099Z,98211.42
2018-06-29T13:52:17.967Z,98212.19
2018-06-29T13:54:50.617Z,98204.19
2018-06-29T13:57:22.883Z,98202.95
2018-06-29T13:59:54.391Z,98206.17
2018-06-29T14:02:25.691Z,98206.90
2018-06-29T14:04:57.380Z,98201.44
2018-06-29T14:07:29.278Z,98202.91
2018-06-29T14:10:01.059Z,98199.41
2018-06-29T14:12:33.164Z,98203.08
2018-06-29T14:15:05.676Z,98204.14
2018-06-29T14:17:37.673Z,98203.44
2018-06-29T14:20:09.364Z,98206.80
2018-06-29T14:22:40.727Z,98201.63
2018-06-29T14:25:13.290Z,98199.78
2018-06-29T14:27:45.378Z,98194.26
2018-06-29T14:30:17.014Z,98195.05
2018-06-29T14:32:49.506Z,98197.48
2018-06-29T14:35:21.074Z,98190.48
2018-06-29T14:37:52.453Z,98193.30
2018-06-29T14:40:23.825Z,98190.16
2018-06-29T14:42:55.689Z,98190.53
2018-06-29T14:45:27.725Z,98180.53
2018-06-29T14:47:59.974Z,98185.19
2018-06-29T14:50:31.170Z,98186.83
2018-06-29T14:53:01.856Z,98189.28
2018-06-29T14:55:33.435Z,98180.31
2018-06-29T14:58:06.382Z,98180.33
2018-06-29T15:00:38.753Z,98176.21
2018-06-29T15:03:10.561Z,98172.96
2018-06-29T15:05:41.717Z,98171.61
2018-06-29T15:08:13.304Z,98168.88
2018-06-29T15:10:44.697Z,98170.98
2018-06-29T15:13:16.203Z,98177.51
2018-06-29T15:15:48.659Z,98179.15
2018-06-29T15:18:20.728Z,98169.92
2018-06-29T15:20:52.055Z,98169.62
2018-06-29T15:23:23.732Z,98170.08
2018-06-29T15:25:55.850Z,98171.23
2018-06-29T15:28:27.461Z,98165.02
2018-06-29T15:31:00.028Z,98160.17
2018-06-29T15:33:32.330Z,98162.59
2018-06-29T15:36:03.575Z,98158.94
2018-06-29T15:38:36.708Z,98158.70
2018-06-29T15:41:08.066Z,98154.23
2018-06-29T15:43:39.649Z,98158.77
2018-06-29T15:46:11.025Z,98163.84
2018-06-29T15:48:43.034Z,98164.85
2018-06-29T15:51:15.428Z,98161.41
2018-06-29T15:53:47.665Z,98162.86
2018-06-29T15:56:20.129Z,98166.91
2018-06-29T15:58:52.318Z,98163.58
2018-06-29T16:01:23.616Z,98162.73
2018-06-29T16:03:56.756Z,98157.22
2018-06-29T16:06:29.354Z,98152.81
2018-06-29T16:09:01.540Z,98155.42
2018-06-29T16:11:34.238Z,98150.20
2018-06-29T16:14:05.615Z,98144.69
2018-06-29T16:16:37.298Z,98143.09
2018-06-29T16:19:08.009Z,98148.33
2018-06-29T16:21:39.147Z,98153.52
2018-06-29T16:24:10.268Z,98153.05
2018-06-29T16:26:41.901Z,98156.19
2018-06-29T16:29:12.999Z,98153.66
2018-06-29T16:31:45.178Z,98153.52
2018-06-29T16:34:16.675Z,98151.08
2018-06-29T16:36:48.134Z,98159.93
2018-06-29T16:39:19.895Z,98158.13
2018-06-29T16:41:51.520Z,98159.45
2018-06-29T16:44:23.098Z,98156.30
2018-06-29T16:46:55.395Z,98155.77
2018-06-29T16:49:27.801Z,98152.28
2018-06-29T16:52:00.251Z,98151.42
2018-06-29T16:54:33.400Z,98150.08
2018-06-29T16:57:06.010Z,98151.88
2018-06-29T16:59:37.680Z,98153.67
2018-06-29T17:02:10.223Z,98155.73
2018-06-29T17:04:42.214Z,98152.22
2018-06-29T17:07:13.541Z,98154.91
2018-06-29T17:09:46.174Z,98145.70
2018-06-29T17:12:18.010Z,98149.40
2018-06-29T17:14:51.144Z,98143.44
2018-06-29T17:17:23.148Z,98147.14
2018-06-29T17:19:55.349Z,98153.28
2018-06-29T17:22:27.533Z,98145.36
2018-06-29T17:25:00.222Z,98148.19
2018-06-29T17:27:31.527Z,98146.41
2018-06-29T17:30:03.967Z,98147.62
2018-06-29T17:32:37.579Z,98148.09
2018-06-29T17:35:09.305Z,98151.88
2018-06-29T17:37:42.365Z,98154.98
2018-06-29T17:40:13.791Z,98151.75
2018-06-29T17:42:48.801Z,98153.45
2018-06-29T17:45:21.042Z,98160.00
2018-06-29T17:47:52.417Z,98163.17
2018-06-29T17:50:23.707Z,98156.22
2018-06-29T17:52:55.449Z,98167.23
2018-06-29T17:55:27.604Z,98162.63
2018-06-29T17:58:01.055Z,98159.72
2018-06-29T18:00:32.846Z,98162.19
2018-06-29T18:03:05.921Z,98171.94
2018-06-29T18:05:37.892Z,98178.19
2018-06-29T18:08:09.370Z,98174.80
2018-06-29T18:10:42.759Z,98177.29
2018-06-29T18:13:16.873Z,98173.81
2018-06-29T18:15:50.289Z,98171.92
2018-06-29T18:18:21.629Z,98179.70
2018-06-29T18:20:53.190Z,98171.47
2018-06-29T18:23:26.959Z,98175.20
2018-06-29T18:26:04.476Z,98174.27
2018-06-29T18:28:36.489Z,98174.20
2018-06-29T18:31:07.808Z,98175.43
2018-06-29T18:33:38.843Z,98179.34
2018-06-29T18:36:11.152Z,98183.83
2018-06-29T18:38:46.387Z,98187.76
2018-06-29T18:41:19.962Z,98183.52
2018-06-29T18:43:53.580Z,98186.11
2018-06-29T18:46:25.867Z,98189.53
2018-06-29T18:48:56.865Z,98187.83
2018-06-29T18:51:28.430Z,98185.21
2018-06-29T18:54:00.165Z,98193.82
2018-06-29T18:56:32.531Z,98196.47
2018-06-29T18:59:06.215Z,98196.41
2018-06-29T19:01:38.707Z,98195.19
2018-06-29T19:04:10.619Z,98205.16
2018-06-29T19:06:42.798Z,98211.80
2018-06-29T19:09:20.207Z,98213.16
2018-06-29T19:11:53.349Z,98211.16
2018-06-29T19:14:25.795Z,98219.78
2018-06-29T19:16:58.787Z,98222.38
2018-06-29T19:19:32.801Z,98217.50
2018-06-29T19:22:06.030Z,98229.33
2018-06-29T19:24:39.074Z,98227.82
2018-06-29T19:27:13.178Z,98240.25
2018-06-29T19:29:47.213Z,98242.43
2018-06-29T19:32:20.620Z,98245.45
2018-06-29T19:35:00.011Z,98253.66
2018-06-29T19:37:34.223Z,98247.20
2018-06-29T19:40:08.917Z,98254.72
2018-06-29T19:42:42.858Z,98254.29
2018-06-29T19:45:17.584Z,98257.28
2018-06-29T19:47:50.605Z,98262.10
2018-06-29T19:50:25.330Z,98264.89
2018-06-29T19:52:59.569Z,98272.02
2018-06-29T19:55:32.979Z,98267.62
2018-06-29T19:58:07.407Z,98279.80
2018-06-29T20:00:40.026Z,98276.83
2018-06-29T20:03:13.515Z,98272.81
2018-06-29T20:05:46.646Z,98280.49
2018-06-29T20:08:19.464Z,98279.34
2018-06-29T20:10:52.587Z,98286.59
2018-06-29T20:13:25.901Z,98283.74
2018-06-29T20:16:00.566Z,98287.41
2018-06-29T20:18:35.253Z,98287.80
2018-06-29T20:21:09.136Z,98284.89
2018-06-29T20:23:42.504Z,98287.64
2018-06-29T20:26:16.031Z,98294.51
2018-06-29T20:28:50.054Z,98298.59
2018-06-29T20:31:24.489Z,98300.34
2018-06-29T20:33:58.209Z,98306.88
2018-06-29T20:36:31.638Z,98307.16
2018-06-29T20:39:08.427Z,98312.29
2018-06-29T20:41:45.135Z,98316.66
2018-06-29T20:44:18.258Z,98312.12
2018-06-29T20:46:52.282Z,98312.83
2018-06-29T20:49:26.193Z,98321.53
2018-06-29T20:51:59.597Z,98323.27
2018-06-29T20:54:33.673Z,98324.13
2018-06-29T20:57:06.715Z,98333.27
2018-06-29T20:59:40.825Z,98331.38
2018-06-29T21:02:16.161Z,98331.59
2018-06-29T21:04:49.842Z,98332.66
2018-06-29T21:07:23.932Z,98332.80
2018-06-29T21:09:56.391Z,98332.41
2018-06-29T21:12:28.904Z,98337.41
2018-06-29T21:15:01.113Z,98337.41
2018-06-29T21:17:33.731Z,98330.81
2018-06-29T21:20:08.005Z,98334.42
2018-06-29T21:22:40.307Z,98338.27
2018-06-29T21:25:13.555Z,98341.38
2018-06-29T21:27:45.910Z,98349.02
2018-06-29T21:30:17.712Z,98351.28
2018-06-29T21:32:49.698Z,98354.15
2018-06-29T21:35:21.452Z,98353.37
2018-06-29T21:37:53.866Z,98357.40
2018-06-29T21:40:25.821Z,98350.33
2018-06-29T21:42:57.470Z,98358.48
2018-06-29T21:45:30.071Z,98360.41
2018-06-29T21:48:01.928Z,98368.96
2018-06-29T21:50:33.702Z,98366.34
2018-06-29T21:53:04.978Z,98362.94
2018-06-29T21:55:36.156Z,98362.39
2018-06-29T21:58:07.592Z,98361.42
2018-06-29T22:00:42.654Z,98357.92
2018-06-29T22:03:15.641Z,98358.79
2018-06-29T22:05:47.512Z,98360.95
2018-06-29T22:08:18.869Z,98358.39
2018-06-29T22:10:51.147Z,98359.27
2018-06-29T22:13:23.662Z,98365.57
2018-06-29T22:15:54.649Z,98359.95
2018-06-29T22:18:26.019Z,98357.88
2018-06-29T22:20:57.212Z,98357.59
2018-06-29T22:23:28.631Z,98364.23
2018-06-29T22:26:00.248Z,98363.73
2018-06-29T22:28:32.259Z,98368.70
2018-06-29T22:31:03.654Z,98359.12
2018-06-29T22:33:35.927Z,98366.09
2018-06-29T22:36:07.231Z,98361.47
2018-06-29T22:38:38.642Z,98367.51
2018-06-29T22:41:09.915Z,98369.06
2018-06-29T22:43:41.168Z,98367.36
2018-06-29T22:46:13.141Z,98370.19
2018-06-29T22:48:44.478Z,98373.20
2018-06-29T22:51:15.682Z,98378.55
2018-06-29T22:53:46.889Z,98375.30
2018-06-29T22:56:18.112Z,98384.59
2018-06-29T22:58:49.256Z,98380.16
2018-06-29T23:01:25.466Z,98388.58
2018-06-29T23:03:57.217Z,98389.56
2018-06-29T23:06:29.535Z,98398.16
2018-06-29T23:09:02.317Z,98397.62
2018-06-29T23:11:33.567Z,98399.47
2018-06-29T23:14:04.608Z,98400.09
2018-06-29T23:16:36.100Z,98398.59
2018-06-29T23:19:08.163Z,98405.70
2018-06-29T23:21:39.638Z,98399.73
2018-06-29T23:24:10.758Z,98399.42
2018-06-29T23:26:43.039Z,98393.91
2018-06-29T23:29:14.183Z,98391.89
2018-06-29T23:31:45.161Z,98393.09
2018-06-29T23:34:16.485Z,98393.73
2018-06-29T23:36:47.864Z,98394.72
2018-06-29T23:39:18.923Z,98392.32
2018-06-29T23:41:50.747Z,98389.45
2018-06-29T23:44:21.956Z,98390.29
2018-06-29T23:46:53.590Z,98385.45
2018-06-29T23:49:24.779Z,98379.70
2018-06-29T23:51:55.723Z,98384.08
2018-06-29T23:54:26.738Z,98389.52
2018-06-29T23:56:57.694Z,98389.02
2018-06-29T23:59:28.718Z,98387.20
